Time;durP1;ratioP1;P1;durP2;ratioP2;P2;SDS_P1;SDS_P2;PMS_P1;PMS_P2;Temp;Humidity;BMP_temperature;BMP_pressure;BME280_temperature;BME280_humidity;BME280_pressure;Samples;Min_cycle;Max_cycle;Signal;HPM_P1;HPM_P2
2022/04/27 00:00:03;;;;;;;11.00;7.38;;;3.70;99.90;;;;;;4771508;30;20105;-64
2022/04/27 00:02:30;;;;;;;9.15;6.53;;;3.70;99.90;;;;;;4786956;30;20094;-65
2022/04/27 00:04:56;;;;;;;9.52;6.90;;;3.60;99.90;;;;;;4786327;30;20390;-65
2022/04/27 00:07:22;;;;;;;11.80;6.80;;;3.70;99.90;;;;;;4787569;30;20146;-65
2022/04/27 00:09:48;;;;;;;7.60;6.18;;;3.60;99.90;;;;;;4787098;30;20480;-65
2022/04/27 00:12:13;;;;;;;7.47;6.22;;;3.60;99.90;;;;;;4771006;30;20055;-65
2022/04/27 00:14:39;;;;;;;10.70;7.43;;;3.60;99.90;;;;;;4787417;30;20066;-65
2022/04/27 00:17:05;;;;;;;11.90;7.30;;;3.50;99.90;;;;;;4770693;30;20197;-64
2022/04/27 00:19:31;;;;;;;12.77;7.38;;;3.40;99.90;;;;;;4771063;30;20070;-64
2022/04/27 00:21:56;;;;;;;9.27;6.30;;;3.30;99.90;;;;;;4786895;30;20059;-65
2022/04/27 00:24:22;;;;;;;9.82;6.72;;;3.30;99.90;;;;;;4785880;29;20138;-65
2022/04/27 00:26:48;;;;;;;9.65;7.57;;;3.20;99.90;;;;;;4786880;30;20505;-65
2022/04/27 00:29:13;;;;;;;12.00;7.50;;;3.10;99.90;;;;;;4785848;29;20060;-65
2022/04/27 00:31:39;;;;;;;10.35;7.10;;;3.10;99.90;;;;;;4770805;30;20143;-64
2022/04/27 00:34:04;;;;;;;8.60;6.90;;;3.10;99.90;;;;;;4787078;30;20449;-65
2022/04/27 00:36:31;;;;;;;14.85;8.35;;;3.10;99.90;;;;;;4771256;30;20421;-65
2022/04/27 00:38:58;;;;;;;10.50;7.75;;;3.00;99.90;;;;;;4787236;30;20052;-64
2022/04/27 00:41:24;;;;;;;11.90;7.75;;;3.00;99.90;;;;;;4770572;30;20051;-65
2022/04/27 00:43:49;;;;;;;12.43;8.02;;;3.00;99.90;;;;;;4785474;29;20142;-64
2022/04/27 00:46:16;;;;;;;11.00;7.28;;;2.90;99.90;;;;;;4786558;30;20062;-65
2022/04/27 00:48:42;;;;;;;9.93;6.97;;;2.90;99.90;;;;;;4786945;30;20554;-64
2022/04/27 00:51:21;;;;;;;12.88;8.02;;;2.90;99.90;;;;;;4787079;30;20137;-65
2022/04/27 00:53:48;;;;;;;14.02;8.00;;;2.80;99.90;;;;;;4770901;29;20109;-65
2022/04/27 00:56:16;;;;;;;12.93;8.60;;;2.80;99.90;;;;;;4788816;30;20461;-64
2022/04/27 00:58:42;;;;;;;15.15;10.45;;;2.80;99.90;;;;;;4789855;30;20556;-65
2022/04/27 01:01:08;;;;;;;11.98;8.43;;;2.80;99.90;;;;;;4789628;30;20063;-64
2022/04/27 01:03:37;;;;;;;14.25;8.52;;;2.80;99.90;;;;;;4789318;30;20055;-64
2022/04/27 01:06:04;;;;;;;14.73;9.73;;;2.70;99.90;;;;;;4774275;30;20493;-64
2022/04/27 01:08:30;;;;;;;12.45;8.20;;;2.70;99.90;;;;;;4790018;30;20055;-64
2022/04/27 01:10:59;;;;;;;14.93;8.32;;;2.70;99.90;;;;;;4790029;30;20070;-65
2022/04/27 01:13:27;;;;;;;12.73;8.25;;;2.80;99.90;;;;;;4789800;30;20047;-63
2022/04/27 01:15:52;;;;;;;13.88;8.25;;;2.80;99.90;;;;;;4789702;30;20055;-64
2022/04/27 01:18:18;;;;;;;13.45;8.20;;;2.80;99.90;;;;;;4790129;30;20508;-65
2022/04/27 01:20:44;;;;;;;12.05;8.10;;;2.70;99.90;;;;;;4788564;30;20059;-63
2022/04/27 01:23:12;;;;;;;13.38;8.32;;;2.70;99.90;;;;;;4788153;30;20051;-64
2022/04/27 01:25:48;;;;;;;12.30;8.32;;;2.70;99.90;;;;;;4789719;30;20057;-65
2022/04/27 01:28:15;;;;;;;13.75;7.95;;;2.80;99.90;;;;;;4773642;30;20059;-64
2022/04/27 01:30:40;;;;;;;11.25;7.97;;;2.80;99.90;;;;;;4789610;30;20439;-65
2022/04/27 01:33:08;;;;;;;12.70;8.25;;;2.80;99.90;;;;;;4789383;30;20112;-64
2022/04/27 01:35:33;;;;;;;12.23;8.07;;;2.80;99.90;;;;;;4773335;30;20113;-65
2022/04/27 01:38:02;;;;;;;10.57;7.70;;;2.90;99.90;;;;;;4789493;30;20500;-64
2022/04/27 01:40:27;;;;;;;10.82;7.97;;;2.80;99.90;;;;;;4789610;30;20467;-65
2022/04/27 01:42:53;;;;;;;13.02;7.63;;;2.90;99.90;;;;;;4789523;30;20138;-64
2022/04/27 01:45:19;;;;;;;10.57;7.32;;;2.90;99.90;;;;;;4772861;30;20143;-64
2022/04/27 01:47:44;;;;;;;10.98;7.45;;;2.90;99.90;;;;;;4772762;30;20142;-65
2022/04/27 01:50:10;;;;;;;10.18;7.63;;;2.90;99.90;;;;;;4789378;30;20086;-65
2022/04/27 01:55:19;;;;;;;11.80;7.53;;;2.90;99.90;;;;;;4787685;30;20066;-65
2022/04/27 01:57:45;;;;;;;12.13;8.05;;;3.00;99.90;;;;;;4788074;30;20067;-65
2022/04/27 02:00:11;;;;;;;10.48;7.63;;;3.00;99.90;;;;;;4788298;29;20077;-65
2022/04/27 02:02:37;;;;;;;10.73;8.25;;;3.00;99.90;;;;;;4772447;30;20051;-65
2022/04/27 02:05:04;;;;;;;12.40;8.43;;;3.10;99.90;;;;;;4789032;29;20066;-65
2022/04/27 02:07:30;;;;;;;14.30;9.05;;;3.10;99.90;;;;;;4789037;30;20059;-65
2022/04/27 02:09:55;;;;;;;12.13;9.10;;;3.20;99.90;;;;;;4788979;30;20411;-64
2022/04/27 02:12:21;;;;;;;13.13;8.52;;;3.20;99.90;;;;;;4787590;29;20509;-64
2022/04/27 02:14:47;;;;;;;14.85;8.32;;;3.30;99.90;;;;;;4788675;30;20417;-65
2022/04/27 02:17:12;;;;;;;15.73;8.88;;;3.40;99.90;;;;;;4788339;30;20184;-64
2022/04/27 02:19:38;;;;;;;11.50;8.60;;;3.50;99.90;;;;;;4787815;29;20142;-65
2022/04/27 02:22:04;;;;;;;18.92;9.18;;;3.50;99.90;;;;;;4772255;30;20051;-65
2022/04/27 02:24:30;;;;;;;10.55;7.65;;;3.60;99.90;;;;;;4788304;30;20581;-65
2022/04/27 02:26:55;;;;;;;12.65;9.10;;;3.60;99.90;;;;;;4787081;30;20087;-65
2022/04/27 02:29:22;;;;;;;12.55;8.57;;;3.70;99.90;;;;;;4772359;30;20136;-64
2022/04/27 02:31:49;;;;;;;13.23;8.48;;;3.70;99.90;;;;;;4788141;30;20059;-64
2022/04/27 02:34:14;;;;;;;10.27;8.23;;;3.80;99.90;;;;;;4788463;30;20044;-64
2022/04/27 02:36:40;;;;;;;11.85;8.25;;;3.80;99.90;;;;;;4772409;30;20601;-64
2022/04/27 02:39:05;;;;;;;13.95;9.30;;;3.90;99.90;;;;;;4788447;30;20464;-64
2022/04/27 02:41:31;;;;;;;13.52;8.93;;;3.90;99.90;;;;;;4772409;30;20051;-65
2022/04/27 02:43:56;;;;;;;12.20;8.68;;;4.00;99.90;;;;;;4788129;30;20051;-65
2022/04/27 02:46:22;;;;;;;12.98;9.65;;;3.90;99.90;;;;;;4788196;30;20059;-65
2022/04/27 02:51:51;;;;;;;13.63;9.68;;;4.00;99.90;;;;;;4788351;30;20063;-64
2022/04/27 02:54:21;;;;;;;13.90;9.27;;;4.00;99.90;;;;;;4788279;30;20143;-64
2022/04/27 02:56:48;;;;;;;12.82;8.93;;;4.10;99.90;;;;;;4786977;29;20094;-65
2022/04/27 02:59:14;;;;;;;12.85;10.32;;;4.00;99.90;;;;;;4787926;30;20067;-65
2022/04/27 03:01:40;;;;;;;12.05;9.50;;;4.10;99.90;;;;;;4787845;30;20101;-64
2022/04/27 03:04:07;;;;;;;13.10;9.20;;;4.10;99.90;;;;;;4787724;30;20091;-65
2022/04/27 03:06:32;;;;;;;11.85;9.13;;;4.10;99.90;;;;;;4787141;30;20081;-64
2022/04/27 03:08:58;;;;;;;13.20;9.57;;;4.10;99.90;;;;;;4772075;30;20494;-64
2022/04/27 03:11:23;;;;;;;13.40;9.23;;;4.10;99.90;;;;;;4788198;30;20463;-65
2022/04/27 03:13:50;;;;;;;11.60;9.68;;;4.10;99.90;;;;;;4787983;30;20099;-65
2022/04/27 03:16:15;;;;;;;13.93;9.10;;;4.20;99.90;;;;;;4787644;30;20059;-64
2022/04/27 03:18:42;;;;;;;14.52;9.70;;;4.20;99.90;;;;;;4786375;30;20116;-65
2022/04/27 03:21:08;;;;;;;10.88;8.40;;;4.20;99.90;;;;;;4787822;30;20093;-64
2022/04/27 03:23:34;;;;;;;11.82;8.63;;;4.10;99.90;;;;;;4786737;30;20089;-65
2022/04/27 03:25:59;;;;;;;13.85;10.07;;;4.20;99.90;;;;;;4786776;30;20059;-65
2022/04/27 03:28:25;;;;;;;12.90;10.02;;;4.20;99.90;;;;;;4771398;30;20058;-64
2022/04/27 03:30:50;;;;;;;13.90;9.65;;;4.30;99.90;;;;;;4787508;30;20063;-64
2022/04/27 03:33:17;;;;;;;13.07;9.35;;;4.30;99.90;;;;;;4787533;30;20462;-65
2022/04/27 03:35:42;;;;;;;13.40;10.32;;;4.30;99.90;;;;;;4786073;30;20055;-65
2022/04/27 03:38:09;;;;;;;13.02;10.63;;;4.30;99.90;;;;;;4771332;30;20138;-64
2022/04/27 03:40:35;;;;;;;10.95;8.93;;;4.30;99.90;;;;;;4771898;30;20067;-63
2022/04/27 03:43:01;;;;;;;12.93;10.35;;;4.30;99.90;;;;;;4787403;30;20134;-65
2022/04/27 03:45:27;;;;;;;16.20;10.75;;;4.30;99.90;;;;;;4787403;30;20093;-64
2022/04/27 03:47:52;;;;;;;14.98;10.10;;;4.40;99.90;;;;;;4787667;30;20523;-64
2022/04/27 03:50:18;;;;;;;12.57;9.23;;;4.40;99.90;;;;;;4787544;30;20051;-64
2022/04/27 03:52:44;;;;;;;12.73;9.65;;;4.60;99.90;;;;;;4786234;30;20127;-65
2022/04/27 03:55:11;;;;;;;12.95;9.63;;;4.50;99.90;;;;;;4787421;29;20055;-65
2022/04/27 03:57:37;;;;;;;14.27;10.32;;;4.50;99.90;;;;;;4771266;30;20063;-65
2022/04/27 04:00:07;;;;;;;14.07;9.93;;;4.50;99.90;;;;;;4771419;30;20055;-64
2022/04/27 04:02:33;;;;;;;14.43;10.18;;;4.50;99.90;;;;;;4787167;30;20063;-65
2022/04/27 04:04:58;;;;;;;11.70;8.98;;;4.50;99.90;;;;;;4786008;30;20379;-64
2022/04/27 04:07:24;;;;;;;14.35;10.18;;;4.50;99.90;;;;;;4771098;30;20135;-64
2022/04/27 04:09:50;;;;;;;11.52;8.70;;;4.50;99.90;;;;;;4785863;30;20063;-65
2022/04/27 04:12:15;;;;;;;14.68;8.98;;;4.50;99.90;;;;;;4785944;30;20059;-64
2022/04/27 04:14:41;;;;;;;13.82;9.70;;;4.50;99.90;;;;;;4771411;30;20545;-64
2022/04/27 04:17:06;;;;;;;14.10;9.63;;;4.60;99.90;;;;;;4786572;30;20059;-64
2022/04/27 04:19:32;;;;;;;13.98;9.60;;;4.60;99.90;;;;;;4787593;30;20144;-64
2022/04/27 04:21:59;;;;;;;17.90;10.13;;;4.60;99.90;;;;;;4770884;30;20108;-65
2022/04/27 04:24:25;;;;;;;12.00;9.32;;;4.60;99.90;;;;;;4771294;30;20051;-65
2022/04/27 04:29:34;;;;;;;12.60;9.63;;;4.70;99.90;;;;;;4787892;29;20421;-65
2022/04/27 04:32:00;;;;;;;14.55;9.25;;;4.70;99.90;;;;;;4790015;30;20052;-65
2022/04/27 04:34:26;;;;;;;11.35;8.68;;;4.80;99.90;;;;;;4790683;30;20085;-66
2022/04/27 04:36:51;;;;;;;13.30;9.65;;;4.80;99.90;;;;;;4790820;30;20481;-65
2022/04/27 04:39:17;;;;;;;15.77;10.50;;;4.80;99.90;;;;;;4774425;30;20063;-65
2022/04/27 04:41:42;;;;;;;13.85;10.15;;;4.90;99.90;;;;;;4790328;30;20055;-65
2022/04/27 04:44:08;;;;;;;16.75;9.38;;;4.90;99.90;;;;;;4790593;30;20055;-64
2022/04/27 04:46:33;;;;;;;12.90;9.55;;;4.90;99.90;;;;;;4773476;30;20425;-65
2022/04/27 04:48:59;;;;;;;12.52;9.40;;;5.00;99.90;;;;;;4790528;30;20055;-64
2022/04/27 04:51:25;;;;;;;14.20;10.15;;;5.00;99.90;;;;;;4774279;30;20075;-64
2022/04/27 04:53:50;;;;;;;15.20;10.13;;;5.10;99.90;;;;;;4774104;30;20063;-65
2022/04/27 04:56:16;;;;;;;14.63;9.85;;;5.10;99.90;;;;;;4790198;30;20450;-65
2022/04/27 04:58:42;;;;;;;12.43;9.85;;;5.20;99.90;;;;;;4773850;30;20491;-65
2022/04/27 05:01:07;;;;;;;12.52;9.45;;;5.20;99.90;;;;;;4788739;30;20062;-65
2022/04/27 05:03:36;;;;;;;14.10;9.93;;;5.20;99.90;;;;;;4790005;30;20460;-65
2022/04/27 05:06:03;;;;;;;10.23;8.98;;;5.30;99.90;;;;;;4789976;30;20066;-65
2022/04/27 05:08:28;;;;;;;11.15;9.32;;;5.30;99.90;;;;;;4773818;30;20047;-65
2022/04/27 05:10:54;;;;;;;12.40;10.15;;;5.40;99.90;;;;;;4788497;30;20051;-64
2022/04/27 05:13:35;;;;;;;15.45;9.57;;;5.40;99.90;;;;;;5143599;27;20147;-65
2022/04/27 05:16:01;;;;;;;12.55;9.60;;;5.50;99.90;;;;;;5108913;28;20044;-65
2022/04/27 05:18:27;;;;;;;12.65;9.60;;;5.60;99.90;;;;;;5092050;28;20047;-64
2022/04/27 05:20:53;;;;;;;16.00;9.48;;;5.60;99.90;;;;;;5110358;28;20043;-64
2022/04/27 05:23:18;;;;;;;13.43;9.95;;;5.70;99.90;;;;;;5110276;28;20051;-64
2022/04/27 05:25:44;;;;;;;12.45;9.20;;;5.80;99.90;;;;;;5110181;28;20126;-64
2022/04/27 05:28:10;;;;;;;10.48;8.75;;;5.80;99.90;;;;;;5108637;28;20048;-65
2022/04/27 05:33:23;;;;;;;14.60;9.73;;;6.00;99.90;;;;;;5109919;28;20165;-64
2022/04/27 05:35:49;;;;;;;15.30;9.50;;;6.00;99.90;;;;;;5110216;28;20047;-65
2022/04/27 05:38:14;;;;;;;11.95;8.82;;;6.10;99.90;;;;;;5108618;28;20054;-65
2022/04/27 05:40:43;;;;;;;15.20;9.70;;;6.10;99.90;;;;;;5109800;28;20059;-65
2022/04/27 05:43:09;;;;;;;12.45;9.68;;;6.20;99.90;;;;;;5110151;28;20074;-64
2022/04/27 05:45:35;;;;;;;16.85;11.38;;;6.20;99.90;;;;;;5108545;28;20096;-64
2022/04/27 05:48:01;;;;;;;36.80;27.25;;;6.30;99.90;;;;;;5109950;28;20059;-65
2022/04/27 05:50:26;;;;;;;35.08;25.73;;;6.40;99.90;;;;;;5110303;28;20043;-63
2022/04/27 05:52:56;;;;;;;41.55;26.88;;;6.40;99.90;;;;;;5109637;28;20063;-65
2022/04/27 05:55:25;;;;;;;22.25;13.88;;;6.40;99.90;;;;;;5109810;28;20058;-64
2022/04/27 05:57:51;;;;;;;12.27;10.65;;;6.40;99.90;;;;;;5109882;28;20059;-64
2022/04/27 06:00:18;;;;;;;14.48;12.85;;;6.60;99.90;;;;;;5109790;28;20052;-63
2022/04/27 06:02:44;;;;;;;16.42;14.73;;;6.50;99.90;;;;;;5107701;28;20056;-64
2022/04/27 06:05:10;;;;;;;17.38;13.43;;;6.60;99.90;;;;;;5108546;28;20071;-64
2022/04/27 06:07:37;;;;;;;14.43;11.88;;;6.70;99.90;;;;;;5109394;28;20496;-65
2022/04/27 06:10:07;;;;;;;14.57;11.77;;;6.80;99.90;;;;;;5108381;28;20052;-64
2022/04/27 06:12:46;;;;;;;11.88;10.68;;;6.80;99.90;;;;;;5107593;28;20567;-64
2022/04/27 06:15:13;;;;;;;11.23;9.98;;;6.90;99.90;;;;;;5109512;28;20052;-64
2022/04/27 06:17:38;;;;;;;12.75;8.73;;;6.90;99.90;;;;;;5107569;28;20051;-65
2022/04/27 06:20:04;;;;;;;10.70;8.88;;;7.00;99.90;;;;;;5108561;28;20051;-65
2022/04/27 06:22:30;;;;;;;11.38;9.05;;;7.10;99.90;;;;;;5109253;28;20048;-64
2022/04/27 06:24:56;;;;;;;15.57;11.35;;;7.10;99.90;;;;;;5095734;28;20446;-65
2022/04/27 06:27:22;;;;;;;10.82;8.85;;;7.20;99.90;;;;;;5093896;28;20040;-64
2022/04/27 06:29:47;;;;;;;14.82;8.93;;;7.30;99.90;;;;;;5094645;28;20114;-65
2022/04/27 06:32:13;;;;;;;12.77;10.57;;;7.30;99.90;;;;;;5093631;28;20048;-64
2022/04/27 06:34:38;;;;;;;17.65;15.23;;;7.40;99.90;;;;;;5096147;28;20051;-64
2022/04/27 06:37:04;;;;;;;14.95;12.07;;;7.40;99.90;;;;;;5095148;28;20396;-65
2022/04/27 06:39:30;;;;;;;10.32;9.00;;;7.50;99.90;;;;;;5095599;28;20507;-65
2022/04/27 06:41:55;;;;;;;13.95;10.15;;;7.60;99.90;;;;;;5095439;28;20048;-64
2022/04/27 06:44:21;;;;;;;15.00;10.35;;;7.70;99.90;;;;;;5093796;28;20123;-65
2022/04/27 06:46:46;;;;;;;13.57;9.00;;;7.70;99.90;;;;;;5093831;28;20042;-64
2022/04/27 06:49:12;;;;;;;10.77;8.60;;;7.80;99.90;;;;;;5094307;28;20480;-63
2022/04/27 06:51:37;;;;;;;12.95;8.95;;;7.90;99.90;;;;;;5094868;28;20135;-65
2022/04/27 06:54:04;;;;;;;10.38;8.07;;;7.90;99.90;;;;;;5094025;28;20066;-65
2022/04/27 06:56:30;;;;;;;8.93;7.65;;;8.00;99.90;;;;;;5094989;28;20126;-64
2022/04/27 06:58:55;;;;;;;10.38;7.60;;;8.10;99.90;;;;;;5094173;28;20087;-65
2022/04/27 07:01:21;;;;;;;11.57;8.15;;;8.20;99.90;;;;;;5093319;28;20044;-65
2022/04/27 07:03:53;;;;;;;13.43;7.03;;;8.30;99.90;;;;;;5094458;28;20048;-64
2022/04/27 07:06:18;;;;;;;7.25;6.20;;;8.40;99.90;;;;;;5094886;28;20146;-65
2022/04/27 07:08:44;;;;;;;6.50;5.65;;;8.40;99.90;;;;;;5093512;28;20068;-65
2022/04/27 07:11:09;;;;;;;8.57;6.05;;;8.50;99.90;;;;;;5093506;28;20067;-65
2022/04/27 07:13:35;;;;;;;13.00;6.43;;;8.60;99.90;;;;;;5095294;28;20070;-65
2022/04/27 07:16:01;;;;;;;13.25;6.60;;;8.70;99.90;;;;;;5093237;28;20408;-65
2022/04/27 07:18:29;;;;;;;8.98;5.50;;;8.70;99.90;;;;;;5093299;28;20428;-65
2022/04/27 07:20:55;;;;;;;9.18;6.07;;;8.80;99.90;;;;;;5094480;28;20122;-63
2022/04/27 07:23:21;;;;;;;7.60;6.25;;;8.90;99.90;;;;;;5093444;28;20084;-65
2022/04/27 07:25:46;;;;;;;10.95;5.72;;;8.90;99.90;;;;;;5093393;28;20052;-64
2022/04/27 07:28:12;;;;;;;8.07;5.35;;;9.00;99.90;;;;;;5094705;28;20138;-64
2022/04/27 07:30:37;;;;;;;13.57;5.45;;;9.20;99.90;;;;;;5092676;28;20052;-64
2022/04/27 07:33:04;;;;;;;7.85;5.40;;;9.20;99.90;;;;;;5094464;28;20048;-65
2022/04/27 07:35:29;;;;;;;5.90;4.80;;;9.30;99.90;;;;;;5092151;28;20105;-65
2022/04/27 07:37:55;;;;;;;5.25;4.50;;;9.30;99.90;;;;;;5094293;28;20044;-64
2022/04/27 07:40:21;;;;;;;8.45;4.47;;;9.40;99.90;;;;;;5092656;28;20048;-65
2022/04/27 07:42:48;;;;;;;5.57;3.85;;;9.50;99.90;;;;;;5093686;28;20095;-65
2022/04/27 07:45:14;;;;;;;6.50;4.50;;;9.60;99.90;;;;;;5094561;28;20056;-64
2022/04/27 07:47:45;;;;;;;6.53;4.72;;;9.70;99.90;;;;;;5126266;27;20126;-65
2022/04/27 07:50:15;;;;;;;7.85;4.05;;;9.80;99.90;;;;;;5093860;28;20048;-65
2022/04/27 07:52:42;;;;;;;8.32;3.92;;;9.90;99.90;;;;;;5093969;28;20101;-65
2022/04/27 07:55:09;;;;;;;5.53;3.45;;;9.90;99.90;;;;;;5093977;28;20102;-65
2022/04/27 07:57:35;;;;;;;5.78;3.40;;;10.00;99.90;;;;;;5093768;28;20549;-64
2022/04/27 08:00:04;;;;;;;6.00;3.00;;;10.10;99.90;;;;;;5092303;28;20043;-65
2022/04/27 08:02:29;;;;;;;4.93;3.45;;;10.20;99.90;;;;;;5091929;28;20056;-64
2022/04/27 08:04:55;;;;;;;6.10;3.45;;;10.30;99.90;;;;;;5093664;28;20084;-64
2022/04/27 08:07:21;;;;;;;5.55;2.92;;;10.30;99.90;;;;;;5075675;28;20086;-65
2022/04/27 08:09:49;;;;;;;7.22;2.95;;;10.30;99.90;;;;;;5092258;28;20052;-65
2022/04/27 08:12:17;;;;;;;4.85;2.75;;;10.20;99.90;;;;;;5093153;28;20091;-65
2022/04/27 08:14:46;;;;;;;4.43;2.28;;;10.50;99.90;;;;;;5093397;28;20047;-64
2022/04/27 08:17:20;;;;;;;4.57;1.90;;;10.60;99.90;;;;;;5091534;28;20553;-65
2022/04/27 08:19:45;;;;;;;2.47;1.98;;;10.80;99.90;;;;;;5075302;28;20067;-65
2022/04/27 08:22:11;;;;;;;4.40;2.67;;;10.90;99.90;;;;;;5091887;28;20101;-66
2022/04/27 08:24:40;;;;;;;3.90;2.05;;;11.10;99.90;;;;;;5075393;28;20039;-64
2022/04/27 08:27:05;;;;;;;3.67;1.90;;;11.10;99.90;;;;;;5093134;28;20047;-65
2022/04/27 08:29:37;;;;;;;6.32;2.28;;;11.30;99.90;;;;;;5091966;28;20507;-65
2022/04/27 08:32:03;;;;;;;2.03;1.70;;;11.40;99.90;;;;;;5091219;28;20143;-65
2022/04/27 08:34:29;;;;;;;5.22;1.90;;;11.40;99.90;;;;;;5092377;28;20470;-65
2022/04/27 08:36:59;;;;;;;5.45;1.85;;;11.50;99.90;;;;;;5074913;28;20127;-65
2022/04/27 08:39:27;;;;;;;5.38;2.15;;;11.60;99.90;;;;;;5075398;28;20048;-65
2022/04/27 08:41:55;;;;;;;4.75;2.00;;;11.60;99.90;;;;;;5108420;28;20040;-65
2022/04/27 08:44:21;;;;;;;4.90;2.53;;;11.60;99.90;;;;;;5074777;28;20085;-64
2022/04/27 08:46:49;;;;;;;3.05;1.83;;;11.60;99.90;;;;;;5074050;28;20044;-66
2022/04/27 08:49:15;;;;;;;6.70;2.20;;;11.70;99.90;;;;;;5091976;28;20449;-65
2022/04/27 08:51:41;;;;;;;3.85;2.10;;;11.70;99.90;;;;;;5091230;28;20044;-65
2022/04/27 08:54:10;;;;;;;4.80;1.80;;;11.70;99.90;;;;;;5091591;28;20048;-65
2022/04/27 08:56:38;;;;;;;3.67;2.08;;;11.90;99.90;;;;;;5074919;28;20048;-65
2022/04/27 08:59:08;;;;;;;2.65;2.00;;;12.00;95.30;;;;;;5091818;28;20469;-64
2022/04/27 09:01:34;;;;;;;3.25;2.00;;;12.10;96.00;;;;;;5074435;28;20040;-65
2022/04/27 09:04:18;;;;;;;5.22;1.90;;;12.10;95.30;;;;;;5092968;28;20051;-64
2022/04/27 09:06:46;;;;;;;2.65;1.75;;;12.10;88.30;;;;;;5091666;28;20036;-64
2022/04/27 09:09:36;;;;;;;3.60;2.05;;;12.20;91.80;;;;;;5074521;28;20040;-64
2022/04/27 09:12:07;;;;;;;3.45;1.80;;;12.30;84.90;;;;;;5090938;28;20059;-64
2022/04/27 09:14:38;;;;;;;5.90;2.35;;;12.30;89.70;;;;;;5075090;28;20036;-64
2022/04/27 09:22:58;;;;;;;2.55;1.73;;;12.50;82.00;;;;;;5092578;28;20048;-64
2022/04/27 09:25:34;;;;;;;2.78;1.65;;;12.50;80.90;;;;;;5092345;28;20056;-64
2022/04/27 09:28:04;;;;;;;3.33;1.80;;;12.50;76.50;;;;;;5092726;28;20056;-64
2022/04/27 09:30:32;;;;;;;4.50;2.20;;;12.50;78.40;;;;;;5090796;28;20067;-65
2022/04/27 09:32:58;;;;;;;2.20;1.80;;;12.40;76.60;;;;;;5091526;28;20173;-64
2022/04/27 09:35:34;;;;;;;3.55;1.80;;;12.40;74.40;;;;;;5074107;28;20150;-65
2022/04/27 09:38:18;;;;;;;3.08;1.88;;;12.50;73.30;;;;;;5092739;28;20079;-64
2022/04/27 09:40:49;;;;;;;6.25;2.33;;;12.50;67.40;;;;;;5092213;28;20048;-64
2022/04/27 09:43:15;;;;;;;3.78;1.95;;;12.50;73.00;;;;;;5091380;28;20056;-64
2022/04/27 09:45:45;;;;;;;2.75;1.90;;;12.60;74.60;;;;;;5090869;28;20468;-64
2022/04/27 09:48:18;;;;;;;3.08;2.00;;;12.90;72.00;;;;;;5091436;28;20082;-65
2022/04/27 09:50:55;;;;;;;5.47;2.25;;;12.80;66.90;;;;;;5090845;28;20048;-63
2022/04/27 09:53:21;;;;;;;3.85;1.95;;;12.90;69.50;;;;;;5092290;28;20400;-64
2022/04/27 09:55:52;;;;;;;2.95;1.98;;;12.90;69.70;;;;;;5092334;28;20453;-64
2022/04/27 09:58:19;;;;;;;3.17;2.10;;;13.10;69.50;;;;;;5109308;28;20047;-63
2022/04/27 10:00:47;;;;;;;5.50;2.45;;;13.10;67.90;;;;;;5094296;28;20048;-64
2022/04/27 10:03:15;;;;;;;5.45;2.30;;;13.20;68.00;;;;;;5077981;28;20047;-64
2022/04/27 10:05:43;;;;;;;3.00;2.05;;;13.30;67.90;;;;;;5095904;28;20433;-65
2022/04/27 10:08:09;;;;;;;3.03;1.88;;;13.30;68.80;;;;;;5094706;28;20055;-64
2022/04/27 10:10:38;;;;;;;5.45;2.33;;;13.20;66.70;;;;;;5094567;28;20396;-64
2022/04/27 10:13:08;;;;;;;5.25;2.65;;;13.20;66.80;;;;;;5095866;28;20396;-64
2022/04/27 10:15:34;;;;;;;4.05;1.73;;;13.20;66.80;;;;;;5095509;28;20063;-65
2022/04/27 10:18:00;;;;;;;5.07;1.85;;;13.30;67.40;;;;;;5095001;28;20395;-64
2022/04/27 10:20:34;;;;;;;3.20;1.92;;;13.30;66.90;;;;;;5095616;28;20056;-65
2022/04/27 10:23:19;;;;;;;4.70;1.90;;;13.40;66.90;;;;;;5095024;28;20047;-65
2022/04/27 10:26:11;;;;;;;7.50;2.13;;;13.50;63.70;;;;;;5095582;28;20123;-65
2022/04/27 10:28:43;;;;;;;3.03;2.08;;;13.40;62.80;;;;;;5095733;28;20048;-65
2022/04/27 10:31:08;;;;;;;;;;;13.30;64.80;;;;;;5095818;28;20095;-65
2022/04/27 10:33:50;;;;;;;3.15;1.90;;;13.20;60.20;;;;;;5094384;28;19989;-65
2022/04/27 10:36:34;;;;;;;7.25;2.30;;;13.20;63.90;;;;;;5096058;28;20056;-65
2022/04/27 10:39:11;;;;;;;4.68;1.90;;;13.20;64.60;;;;;;5095407;28;20169;-66
2022/04/27 10:41:39;;;;;;;3.78;2.33;;;13.20;65.30;;;;;;5095741;28;20423;-65
2022/04/27 10:44:04;;;;;;;4.13;1.98;;;13.30;65.90;;;;;;5094242;28;20446;-64
2022/04/27 10:46:38;;;;;;;6.88;2.45;;;13.40;65.30;;;;;;5095219;28;20060;-65
2022/04/27 10:49:24;;;;;;;4.43;2.08;;;13.40;63.40;;;;;;5095277;28;20043;-64
2022/04/27 10:52:01;;;;;;;4.72;2.00;;;13.50;64.00;;;;;;5095056;28;20043;-65
2022/04/27 10:54:32;;;;;;;4.38;2.45;;;13.60;64.20;;;;;;5094979;28;20518;-65
2022/04/27 10:57:16;;;;;;;4.22;2.05;;;13.50;62.30;;;;;;5095126;28;20056;-64
2022/04/27 10:59:45;;;;;;;6.85;2.30;;;13.60;62.80;;;;;;5094949;28;20135;-65
2022/04/27 11:02:39;;;;;;;4.75;2.03;;;13.60;63.70;;;;;;5094988;28;20427;-64
2022/04/27 11:05:11;;;;;;;4.75;2.08;;;13.80;63.20;;;;;;5094947;28;20418;-65
2022/04/27 11:07:54;;;;;;;3.63;1.70;;;14.00;63.60;;;;;;5095071;28;20106;-64
2022/04/27 11:10:21;;;;;;;3.83;2.33;;;14.10;61.30;;;;;;5094713;28;20054;-65
2022/04/27 11:12:52;;;;;;;4.15;2.10;;;14.20;62.20;;;;;;5093452;28;20106;-65
2022/04/27 11:15:21;;;;;;;3.30;2.03;;;14.10;62.00;;;;;;5094684;28;20052;-64
2022/04/27 11:17:52;;;;;;;4.30;2.30;;;14.20;61.70;;;;;;5093423;28;20095;-65
2022/04/27 11:20:28;;;;;;;6.57;2.45;;;14.00;60.70;;;;;;5094591;28;20050;-65
2022/04/27 11:22:54;;;;;;;4.35;2.22;;;14.00;60.80;;;;;;5094710;28;20060;-65
2022/04/27 11:25:28;;;;;;;5.72;2.50;;;13.90;61.00;;;;;;5094607;28;20055;-64
2022/04/27 11:27:55;;;;;;;4.72;2.20;;;13.90;61.20;;;;;;5094793;28;20104;-65
2022/04/27 11:30:21;;;;;;;4.65;2.33;;;14.00;61.60;;;;;;5094405;28;20044;-64
2022/04/27 11:32:51;;;;;;;3.05;2.00;;;14.00;61.50;;;;;;5075953;28;20123;-65
2022/04/27 11:35:17;;;;;;;5.18;1.90;;;14.00;61.60;;;;;;5094309;28;20044;-65
2022/04/27 11:37:43;;;;;;;4.35;2.10;;;14.00;60.60;;;;;;5094318;28;20135;-65
2022/04/27 11:40:16;;;;;;;3.97;2.38;;;13.90;60.30;;;;;;5094034;28;20120;-64
2022/04/27 11:42:46;;;;;;;6.57;2.30;;;13.90;59.70;;;;;;5093021;28;20048;-64
2022/04/27 11:45:17;;;;;;;5.47;2.38;;;13.90;60.90;;;;;;5093969;28;20052;-65
2022/04/27 11:47:42;;;;;;;2.80;2.05;;;14.00;62.50;;;;;;5093677;28;20048;-66
2022/04/27 11:50:08;;;;;;;4.32;2.40;;;14.40;62.50;;;;;;5092776;28;20472;-64
2022/04/27 11:52:36;;;;;;;4.55;2.40;;;14.50;62.10;;;;;;5092425;28;20056;-64
2022/04/27 11:55:14;;;;;;;4.57;2.50;;;14.60;61.10;;;;;;5094108;28;20051;-65
2022/04/27 11:57:40;;;;;;;4.88;2.38;;;14.70;58.30;;;;;;5093985;28;20052;-65
2022/04/27 12:00:07;;;;;;;3.80;2.55;;;14.40;58.50;;;;;;5093724;28;20048;-65
2022/04/27 12:02:34;;;;;;;4.20;2.30;;;14.50;59.10;;;;;;5092183;28;20059;-64
2022/04/27 12:05:00;;;;;;;5.65;2.40;;;14.40;59.60;;;;;;5093556;28;20044;-64
2022/04/27 12:07:26;;;;;;;8.10;2.50;;;14.50;60.00;;;;;;5075463;28;20048;-65
2022/04/27 12:09:59;;;;;;;3.35;2.67;;;14.60;60.00;;;;;;5093726;28;20318;-65
2022/04/27 12:12:29;;;;;;;5.07;2.10;;;14.50;57.90;;;;;;5092003;28;20063;-64
2022/04/27 12:14:56;;;;;;;3.75;2.20;;;14.50;58.40;;;;;;5093676;28;20186;-64
2022/04/27 12:17:43;;;;;;;4.13;2.50;;;14.50;58.90;;;;;;5093467;28;20388;-64
2022/04/27 12:20:21;;;;;;;5.30;2.30;;;14.50;58.00;;;;;;5091887;28;20072;-65
2022/04/27 12:23:05;;;;;;;3.80;2.33;;;14.60;59.90;;;;;;5093106;28;20157;-64
2022/04/27 12:25:36;;;;;;;8.13;2.67;;;14.80;60.30;;;;;;5092261;28;20112;-64
2022/04/27 12:28:06;;;;;;;5.50;2.63;;;14.90;59.60;;;;;;5092423;28;20391;-65
2022/04/27 12:30:49;;;;;;;4.65;2.53;;;15.00;59.50;;;;;;5092966;28;20051;-64
2022/04/27 12:33:25;;;;;;;4.22;2.53;;;14.90;59.00;;;;;;5093501;28;20044;-64
2022/04/27 12:38:54;;;;;;;4.78;2.65;;;14.90;59.30;;;;;;5093455;28;20047;-64
2022/04/27 12:41:44;;;;;;;4.90;2.80;;;15.00;59.80;;;;;;5093404;28;20044;-64
2022/04/27 12:44:11;;;;;;;4.40;2.97;;;14.80;59.10;;;;;;5093267;28;20143;-64
2022/04/27 12:47:00;;;;;;;4.53;2.35;;;14.70;60.10;;;;;;5091416;28;20498;-64
2022/04/27 12:49:27;;;;;;;4.57;2.90;;;14.60;60.80;;;;;;5093012;28;20039;-64
2022/04/27 12:51:54;;;;;;;6.57;2.72;;;14.60;61.10;;;;;;5093153;28;20040;-65
2022/04/27 12:54:34;;;;;;;5.97;2.65;;;14.60;60.70;;;;;;5093279;28;20080;-64
2022/04/27 12:57:00;;;;;;;4.72;3.00;;;14.70;60.20;;;;;;5092924;28;20048;-64
2022/04/27 12:59:25;;;;;;;5.43;3.13;;;14.60;60.30;;;;;;5091636;28;20052;-65
2022/04/27 13:01:58;;;;;;;6.95;2.60;;;14.60;60.40;;;;;;5091021;28;20044;-65
2022/04/27 13:04:23;;;;;;;4.95;2.70;;;14.70;60.10;;;;;;5092582;28;20162;-65
2022/04/27 13:06:51;;;;;;;5.72;2.80;;;14.60;59.90;;;;;;5091691;28;20120;-65
2022/04/27 13:12:00;;;;;;;6.38;2.85;;;14.50;61.10;;;;;;5092439;28;20135;-65
2022/04/27 13:14:27;;;;;;;6.07;2.80;;;14.50;60.90;;;;;;5092651;28;20498;-65